Prevelis — SYDL — position and weather

sailwx.info

Track history (hours):
 
Tides and Currents Weather Stations Pressure Air Temp Water Temp Dewpoint Dewpoint Depression Visibility Wind Speed Wind Dir Waves Ship Positions

Prevelis

Last reported at 2015-Jul-02 22:33 UTC. Time now 2015-Jul-02 23:05 UTC.
Position N 36°29' E 025°07'.

Length 143 m; draft 5.5 m.

Type: Passenger vessel. MMSI: 239297000.

Date/timePositionNaut miles runAvg speedWind from/ knotsBaromVisibWave heightAir tempDewpointWater temp
2015-Jul-02 22:33N 36°29' E 025°07'1615.9
2015-Jul-02 21:33N 36°23' E 025°25'4 4.3
2015-Jul-02 20:32N 36°22' E 025°21'1717.1
2015-Jul-02 19:33N 36°20' E 025°42'9 8.8
2015-Jul-02 18:33N 36°14' E 025°50'1817.8
2015-Jul-02 17:33N 36°01' E 026°05'6210.4
2015-Jul-02 11:33N 35°34' E 027°14'41 2.7
2015-Jul-01 20:21N 36°10' E 027°37'1518.6
2015-Jul-01 19:33N 35°58' E 027°26'37 2.0
2015-Jul-01 00:33N 35°26' E 027°02'35 8.8
2015-Jun-30 20:33N 35°57' E 027°23'3014.8
2015-Jun-30 18:32N 36°19' E 027°48'86 5.6
2015-Jun-30 03:09N 36°04' E 026°03'1218.9
2015-Jun-30 02:33N 36°11' E 025°52'1010.4
2015-Jun-30 01:32N 36°21' E 025°46'1716.9
2015-Jun-30 00:33N 36°18' E 025°25'5 4.9
2015-Jun-29 23:33N 36°23' E 025°26'4 4.2
2015-Jun-29 22:33N 36°22' E 025°21'1817.8
2015-Jun-29 21:33N 36°30' E 025°01'8917.9
2015-Jun-29 16:33N 37°37' E 023°46'1817.6
2015-Jun-29 15:33N 37°53' E 023°37'4 4.2
2015-Jun-29 14:33N 37°57' E 023°38'0 0.0
2015-Jun-29 13:33N 37°57' E 023°38'0 0.0
2015-Jun-29 12:33N 37°57' E 023°38'0 0.0
2015-Jun-29 11:33N 37°57' E 023°38'0 0.0
2015-Jun-29 10:33N 37°57' E 023°38'0 0.0
2015-Jun-29 09:33N 37°57' E 023°38'0 0.0
2015-Jun-29 08:33N 37°57' E 023°38'0 0.0
2015-Jun-29 07:33N 37°57' E 023°38'0 0.0
2015-Jun-29 06:33N 37°57' E 023°38'0 0.0
2015-Jun-29 05:33N 37°57' E 023°38'0 0.0
2015-Jun-29 04:33N 37°57' E 023°38'0 0.0
2015-Jun-29 03:33N 37°57' E 023°38'1111.1
2015-Jun-29 02:33N 37°46' E 023°43'10114.4
2015-Jun-28 19:33N 36°33' E 025°10'1615.8
2015-Jun-28 18:32N 36°23' E 025°26'2 1.5
2015-Jun-28 17:33N 36°23' E 025°24'1211.7
2015-Jun-28 16:33N 36°20' E 025°38'8 8.3
2015-Jun-28 15:33N 36°16' E 025°47'1817.9
2015-Jun-28 14:33N 35°59' E 025°53'62 2.3
2015-Jun-27 11:14N 35°26' E 026°59'7110.5
2015-Jun-27 04:30N 36°09' E 025°48'1212.6
2015-Jun-27 03:32N 36°21' E 025°46'1616.5
2015-Jun-27 02:33N 36°19' E 025°26'5 4.7
2015-Jun-27 01:33N 36°23' E 025°26'0 0.1
2015-Jun-27 00:32N 36°23' E 025°26'1616.1
2015-Jun-26 23:33N 36°28' E 025°07'9814.0
2015-Jun-26 16:33N 37°40' E 023°43'1616.1
2015-Jun-26 15:34N 37°55' E 023°37'2 2.3
2015-Jun-26 14:34N 37°57' E 023°38'0 0.0
2015-Jun-26 13:33N 37°57' E 023°38'0 0.0
2015-Jun-26 12:33N 37°57' E 023°38'0 0.0
2015-Jun-26 11:33N 37°57' E 023°38'0 0.0
2015-Jun-26 10:33N 37°57' E 023°38'0 0.0
2015-Jun-26 09:33N 37°57' E 023°38'0 0.0
2015-Jun-26 08:33N 37°57' E 023°38'0 0.0
2015-Jun-26 07:33N 37°57' E 023°38'0 0.0
2015-Jun-26 06:33N 37°57' E 023°38'0 0.0
2015-Jun-26 05:32N 37°57' E 023°38'2 2.4
2015-Jun-26 04:33N 37°55' E 023°38'1818.2
2015-Jun-26 03:33N 37°39' E 023°48'10717.8
2015-Jun-25 21:33N 36°23' E 025°22'0 0.2
2015-Jun-25 20:33N 36°23' E 025°23'1313.5
2015-Jun-25 19:34N 36°20' E 025°39'9 8.9
2015-Jun-25 18:31N 36°15' E 025°49'1717.8
2015-Jun-25 17:33N 36°04' E 026°05'1817.6
2015-Jun-25 16:33N 35°52' E 026°21'3617.5
2015-Jun-25 14:30N 35°29' E 026°55'6 6.3
2015-Jun-25 13:33N 35°26' E 027°02'13 6.1
2015-Jun-25 11:25N 35°35' E 027°14'  
Track history (hours):
 
Tides and Currents Weather Stations Pressure Air Temp Water Temp Dewpoint Dewpoint Depression Visibility Wind Speed Wind Dir Waves Ship Positions

Prevelis

Last reported at 2015-Jul-02 22:33 UTC. Time now 2015-Jul-02 23:05 UTC.
Position N 36°29' E 025°07'.

Length 143 m; draft 5.5 m.

Type: Passenger vessel. MMSI: 239297000.

Date/timePositionNaut miles runAvg speedWind from/ knotsBaromVisibWave heightAir tempDewpointWater temp
2015-Jul-02 22:33N 36°29' E 025°07'1615.9
2015-Jul-02 21:33N 36°23' E 025°25'4 4.3
2015-Jul-02 20:32N 36°22' E 025°21'1717.1
2015-Jul-02 19:33N 36°20' E 025°42'9 8.8
2015-Jul-02 18:33N 36°14' E 025°50'1817.8
2015-Jul-02 17:33N 36°01' E 026°05'6210.4
2015-Jul-02 11:33N 35°34' E 027°14'41 2.7
2015-Jul-01 20:21N 36°10' E 027°37'1518.6
2015-Jul-01 19:33N 35°58' E 027°26'37 2.0
2015-Jul-01 00:33N 35°26' E 027°02'35 8.8
2015-Jun-30 20:33N 35°57' E 027°23'3014.8
2015-Jun-30 18:32N 36°19' E 027°48'86 5.6
2015-Jun-30 03:09N 36°04' E 026°03'1218.9
2015-Jun-30 02:33N 36°11' E 025°52'1010.4
2015-Jun-30 01:32N 36°21' E 025°46'1716.9
2015-Jun-30 00:33N 36°18' E 025°25'5 4.9
2015-Jun-29 23:33N 36°23' E 025°26'4 4.2
2015-Jun-29 22:33N 36°22' E 025°21'1817.8
2015-Jun-29 21:33N 36°30' E 025°01'8917.9
2015-Jun-29 16:33N 37°37' E 023°46'1817.6
2015-Jun-29 15:33N 37°53' E 023°37'4 4.2
2015-Jun-29 14:33N 37°57' E 023°38'0 0.0
2015-Jun-29 13:33N 37°57' E 023°38'0 0.0
2015-Jun-29 12:33N 37°57' E 023°38'0 0.0
2015-Jun-29 11:33N 37°57' E 023°38'0 0.0
2015-Jun-29 10:33N 37°57' E 023°38'0 0.0
2015-Jun-29 09:33N 37°57' E 023°38'0 0.0
2015-Jun-29 08:33N 37°57' E 023°38'0 0.0
2015-Jun-29 07:33N 37°57' E 023°38'0 0.0
2015-Jun-29 06:33N 37°57' E 023°38'0 0.0
2015-Jun-29 05:33N 37°57' E 023°38'0 0.0
2015-Jun-29 04:33N 37°57' E 023°38'0 0.0
2015-Jun-29 03:33N 37°57' E 023°38'1111.1
2015-Jun-29 02:33N 37°46' E 023°43'10114.4
2015-Jun-28 19:33N 36°33' E 025°10'1615.8
2015-Jun-28 18:32N 36°23' E 025°26'2 1.5
2015-Jun-28 17:33N 36°23' E 025°24'1211.7
2015-Jun-28 16:33N 36°20' E 025°38'8 8.3
2015-Jun-28 15:33N 36°16' E 025°47'1817.9
2015-Jun-28 14:33N 35°59' E 025°53'62 2.3
2015-Jun-27 11:14N 35°26' E 026°59'7110.5
2015-Jun-27 04:30N 36°09' E 025°48'1212.6
2015-Jun-27 03:32N 36°21' E 025°46'1616.5
2015-Jun-27 02:33N 36°19' E 025°26'5 4.7
2015-Jun-27 01:33N 36°23' E 025°26'0 0.1
2015-Jun-27 00:32N 36°23' E 025°26'1616.1
2015-Jun-26 23:33N 36°28' E 025°07'9814.0
2015-Jun-26 16:33N 37°40' E 023°43'1616.1
2015-Jun-26 15:34N 37°55' E 023°37'2 2.3
2015-Jun-26 14:34N 37°57' E 023°38'0 0.0
2015-Jun-26 13:33N 37°57' E 023°38'0 0.0
2015-Jun-26 12:33N 37°57' E 023°38'0 0.0
2015-Jun-26 11:33N 37°57' E 023°38'0 0.0
2015-Jun-26 10:33N 37°57' E 023°38'0 0.0
2015-Jun-26 09:33N 37°57' E 023°38'0 0.0
2015-Jun-26 08:33N 37°57' E 023°38'0 0.0
2015-Jun-26 07:33N 37°57' E 023°38'0 0.0
2015-Jun-26 06:33N 37°57' E 023°38'0 0.0
2015-Jun-26 05:32N 37°57' E 023°38'2 2.4
2015-Jun-26 04:33N 37°55' E 023°38'1818.2
2015-Jun-26 03:33N 37°39' E 023°48'10717.8
2015-Jun-25 21:33N 36°23' E 025°22'0 0.2
2015-Jun-25 20:33N 36°23' E 025°23'1313.5
2015-Jun-25 19:34N 36°20' E 025°39'9 8.9
2015-Jun-25 18:31N 36°15' E 025°49'1717.8
2015-Jun-25 17:33N 36°04' E 026°05'1817.6
2015-Jun-25 16:33N 35°52' E 026°21'3617.5
2015-Jun-25 14:30N 35°29' E 026°55'6 6.3
2015-Jun-25 13:33N 35°26' E 027°02'13 6.1
2015-Jun-25 11:25N 35°35' E 027°14'  

Dump ship's entire track history